createdAt,value
2023-05-23T00:00:17.309Z,21.33
2023-05-23T00:02:49.991Z,24.73
2023-05-23T00:05:22.573Z,22.85
2023-05-23T00:07:57.309Z,21.75
2023-05-23T00:10:29.784Z,22.75
2023-05-23T00:13:02.514Z,22.10
2023-05-23T00:15:34.780Z,24.90
2023-05-23T00:18:09.425Z,20.73
2023-05-23T00:20:42.993Z,22.65
2023-05-23T00:23:21.558Z,23.67
2023-05-23T00:25:54.445Z,23.25
2023-05-23T00:28:26.826Z,23.45
2023-05-23T00:30:59.022Z,24.45
2023-05-23T00:33:33.560Z,24.13
2023-05-23T00:36:06.589Z,24.05
2023-05-23T00:38:41.772Z,23.70
2023-05-23T00:41:14.129Z,24.80
2023-05-23T00:43:47.101Z,24.58
2023-05-23T00:46:19.416Z,24.42
2023-05-23T00:48:51.725Z,23.83
2023-05-23T00:51:24.494Z,27.92
2023-05-23T00:54:01.677Z,25.48
2023-05-23T00:56:34.212Z,24.67
2023-05-23T00:59:07.983Z,27.30
2023-05-23T01:01:41.367Z,26.30
2023-05-23T01:04:14.222Z,30.15
2023-05-23T01:06:47.304Z,28.80
2023-05-23T01:09:23.714Z,28.40
2023-05-23T01:12:07.717Z,28.90
2023-05-23T01:14:46.098Z,29.73
2023-05-23T01:17:25.637Z,29.23
2023-05-23T01:20:06.133Z,33.42
2023-05-23T01:22:55.783Z,30.13
2023-05-23T01:25:49.968Z,31.50
2023-05-23T01:28:28.404Z,25.80
2023-05-23T01:31:04.460Z,30.67
2023-05-23T01:33:38.272Z,32.65
2023-05-23T01:36:15.236Z,30.17
2023-05-23T01:38:47.478Z,30.35
2023-05-23T01:41:19.732Z,31.27
2023-05-23T01:43:54.800Z,31.58
2023-05-23T01:46:27.971Z,35.88
2023-05-23T01:49:01.258Z,31.08
2023-05-23T01:51:34.462Z,33.65
2023-05-23T01:54:07.577Z,32.88
2023-05-23T01:56:41.493Z,36.65
2023-05-23T01:59:16.477Z,33.97
2023-05-23T02:01:48.762Z,34.88
2023-05-23T02:04:21.732Z,34.60
2023-05-23T02:06:53.883Z,36.17
2023-05-23T02:09:26.072Z,34.17
2023-05-23T02:11:59.752Z,37.58
2023-05-23T02:14:34.621Z,39.72
2023-05-23T02:17:07.961Z,35.83
2023-05-23T02:19:40.292Z,35.33
2023-05-23T02:22:12.524Z,36.28
2023-05-23T02:24:44.719Z,35.58
2023-05-23T02:27:16.903Z,36.92
2023-05-23T02:29:51.674Z,37.85
2023-05-23T02:32:23.828Z,38.83
2023-05-23T02:34:57.413Z,39.05
2023-05-23T02:37:30.161Z,41.50
2023-05-23T02:40:02.407Z,42.08
2023-05-23T02:42:34.817Z,35.25
2023-05-23T02:45:10.800Z,41.83
2023-05-23T02:47:43.025Z,39.45
2023-05-23T02:50:15.312Z,38.55
2023-05-23T02:52:47.506Z,37.10
2023-05-23T02:55:19.754Z,40.00
2023-05-23T02:57:51.960Z,42.08
2023-05-23T03:00:28.640Z,40.88
2023-05-23T03:03:00.873Z,40.58
2023-05-23T03:05:33.165Z,39.00
2023-05-23T03:08:05.786Z,36.80
2023-05-23T03:10:38.109Z,38.90
2023-05-23T03:13:10.783Z,40.15
2023-05-23T03:15:46.646Z,36.97
2023-05-23T03:18:18.925Z,38.13
2023-05-23T03:20:51.279Z,38.55
2023-05-23T03:23:23.622Z,38.88
2023-05-23T03:25:56.079Z,39.33
2023-05-23T03:28:28.341Z,39.00
2023-05-23T03:31:03.183Z,37.60
2023-05-23T03:33:36.574Z,35.47
2023-05-23T03:36:10.835Z,39.50
2023-05-23T03:38:43.244Z,36.22
2023-05-23T03:41:15.604Z,34.88
2023-05-23T03:43:48.090Z,39.58
2023-05-23T03:46:23.194Z,38.70
2023-05-23T03:48:55.594Z,38.72
2023-05-23T03:51:28.635Z,38.60
2023-05-23T03:54:01.035Z,38.28
2023-05-23T03:56:33.468Z,39.63
2023-05-23T03:59:05.740Z,38.17
2023-05-23T04:01:40.729Z,38.00
2023-05-23T04:04:13.140Z,39.95
2023-05-23T04:06:45.572Z,36.67
2023-05-23T04:09:18.292Z,37.22
2023-05-23T04:11:50.741Z,36.03
2023-05-23T04:14:24.571Z,35.00
2023-05-23T04:17:01.327Z,36.45
2023-05-23T04:19:33.969Z,36.88
2023-05-23T04:22:06.386Z,36.42
2023-05-23T04:24:38.622Z,37.88
2023-05-23T04:27:10.879Z,39.38
2023-05-23T04:29:44.550Z,36.30
2023-05-23T04:32:23.277Z,33.60
2023-05-23T04:34:57.086Z,36.90
2023-05-23T04:37:29.428Z,36.97
2023-05-23T04:40:01.590Z,38.28
2023-05-23T04:42:33.971Z,38.78
2023-05-23T04:45:14.098Z,36.20
2023-05-23T04:47:56.699Z,41.75
2023-05-23T04:50:36.108Z,35.35
2023-05-23T04:53:17.424Z,32.78
2023-05-23T04:55:49.796Z,33.33
2023-05-23T04:58:22.038Z,36.95
2023-05-23T05:00:54.522Z,32.35
2023-05-23T05:03:29.287Z,32.88
2023-05-23T05:06:02.859Z,34.25
2023-05-23T05:08:42.468Z,33.20
2023-05-23T05:11:14.622Z,28.65
2023-05-23T05:13:46.882Z,31.20
2023-05-23T05:16:21.106Z,31.55
2023-05-23T05:18:56.034Z,33.17
2023-05-23T05:21:28.276Z,29.50
2023-05-23T05:24:00.370Z,32.90
2023-05-23T05:26:33.136Z,27.67
2023-05-23T05:29:05.293Z,31.60
2023-05-23T05:31:38.165Z,33.40
2023-05-23T05:34:16.166Z,34.83
2023-05-23T05:36:50.792Z,32.53
2023-05-23T05:39:25.278Z,31.75
2023-05-23T05:41:57.560Z,32.25
2023-05-23T05:44:29.674Z,33.28
2023-05-23T05:47:01.849Z,32.63
2023-05-23T05:49:47.514Z,32.67
2023-05-23T05:52:19.633Z,28.95
2023-05-23T05:54:51.818Z,33.10
2023-05-23T05:57:26.708Z,31.23
2023-05-23T05:59:58.920Z,29.02
2023-05-23T06:02:31.189Z,31.42
2023-05-23T06:05:08.186Z,29.10
2023-05-23T06:07:44.177Z,28.40
2023-05-23T06:10:16.499Z,32.20
2023-05-23T06:12:48.778Z,28.77
2023-05-23T06:15:20.980Z,28.13
2023-05-23T06:17:53.357Z,25.00
2023-05-23T06:20:28.896Z,25.48
2023-05-23T06:23:02.079Z,24.15
2023-05-23T06:25:34.256Z,24.48
2023-05-23T06:28:06.497Z,22.10
2023-05-23T06:30:39.385Z,21.15
2023-05-23T06:33:12.813Z,21.15
2023-05-23T06:35:47.570Z,19.60
2023-05-23T06:38:19.723Z,21.55
2023-05-23T06:40:51.849Z,19.33
2023-05-23T06:43:24.008Z,20.15
2023-05-23T06:45:56.345Z,18.15
2023-05-23T06:48:28.516Z,16.60
2023-05-23T06:51:03.265Z,16.17
2023-05-23T06:53:35.454Z,15.50
2023-05-23T06:56:07.737Z,17.77
2023-05-23T06:58:39.979Z,17.15
2023-05-23T07:01:12.378Z,16.15
2023-05-23T07:03:46.593Z,16.67
2023-05-23T07:06:21.328Z,18.50
2023-05-23T07:08:53.742Z,16.58
2023-05-23T07:11:35.787Z,18.40
2023-05-23T07:14:17.221Z,17.17
2023-05-23T07:16:58.774Z,17.00
2023-05-23T07:19:31.726Z,15.48
2023-05-23T07:22:06.609Z,15.35
2023-05-23T07:24:38.804Z,19.10
2023-05-23T07:27:18.660Z,17.13
2023-05-23T07:29:51.148Z,14.52
2023-05-23T07:32:23.248Z,14.43
2023-05-23T07:34:55.536Z,14.35
2023-05-23T07:37:30.395Z,14.45
2023-05-23T07:40:02.595Z,12.98
2023-05-23T07:42:37.747Z,13.50
2023-05-23T07:45:10.881Z,12.85
2023-05-23T07:47:43.167Z,12.60
2023-05-23T07:50:17.218Z,12.93
2023-05-23T07:52:52.353Z,13.70
2023-05-23T07:55:24.712Z,12.65
2023-05-23T07:57:56.955Z,12.63
2023-05-23T08:00:29.061Z,11.95
2023-05-23T08:03:01.406Z,12.02
2023-05-23T08:05:33.874Z,10.48
2023-05-23T08:08:08.754Z,12.15
2023-05-23T08:10:41.185Z,12.50
2023-05-23T08:13:13.525Z,12.15
2023-05-23T08:15:54.554Z,12.25
2023-05-23T08:18:32.944Z,12.30
2023-05-23T08:21:05.231Z,11.60
2023-05-23T08:23:40.123Z,11.90
2023-05-23T08:26:12.324Z,12.00
2023-05-23T08:28:44.425Z,12.70
2023-05-23T08:31:17.049Z,11.82
2023-05-23T08:33:49.329Z,12.63
2023-05-23T08:36:21.485Z,12.23
2023-05-23T08:38:59.180Z,11.23
2023-05-23T08:41:31.800Z,11.77
2023-05-23T08:44:04.019Z,11.93
2023-05-23T08:46:44.728Z,11.98
2023-05-23T08:49:18.614Z,11.02
2023-05-23T08:51:55.674Z,11.75
2023-05-23T08:54:30.600Z,10.60
2023-05-23T08:57:06.009Z,11.20
2023-05-23T08:59:39.740Z,10.35
2023-05-23T09:02:14.582Z,10.77
2023-05-23T09:04:47.017Z,9.57
2023-05-23T09:07:19.878Z,9.35
2023-05-23T09:09:57.241Z,9.98
2023-05-23T09:12:29.809Z,10.90
2023-05-23T09:15:02.019Z,9.35
2023-05-23T09:17:34.462Z,8.48
2023-05-23T09:20:19.671Z,8.65
2023-05-23T09:22:51.933Z,8.48
2023-05-23T09:25:27.052Z,8.20
2023-05-23T09:28:01.499Z,8.20
2023-05-23T09:30:35.023Z,8.57
2023-05-23T09:33:07.190Z,8.35
2023-05-23T09:35:44.802Z,8.50
2023-05-23T09:38:19.131Z,6.97
2023-05-23T09:40:56.661Z,7.75
2023-05-23T09:43:29.404Z,7.20
2023-05-23T09:46:01.967Z,7.45
2023-05-23T09:48:34.339Z,7.28
2023-05-23T09:51:07.700Z,6.55
2023-05-23T09:53:39.855Z,7.50
2023-05-23T09:56:16.903Z,6.75
2023-05-23T09:58:50.211Z,8.57
2023-05-23T10:01:25.006Z,8.60
2023-05-23T10:04:00.170Z,9.40
2023-05-23T10:06:38.269Z,8.95
2023-05-23T10:09:18.151Z,8.77
2023-05-23T10:12:32.509Z,9.20
2023-05-23T10:15:15.946Z,7.85
2023-05-23T10:18:02.394Z,7.95
2023-05-23T10:20:39.417Z,8.70
2023-05-23T10:23:13.472Z,8.55
2023-05-23T10:25:46.357Z,6.93
2023-05-23T10:28:19.948Z,7.38
2023-05-23T10:30:55.007Z,7.95
2023-05-23T10:33:31.806Z,8.82
2023-05-23T10:36:09.674Z,7.55
2023-05-23T10:38:47.497Z,7.10
2023-05-23T10:41:27.590Z,7.28
2023-05-23T10:44:07.474Z,7.22
2023-05-23T10:46:55.823Z,8.02
2023-05-23T10:49:41.593Z,6.22
2023-05-23T10:52:15.360Z,7.35
2023-05-23T10:54:49.462Z,7.30
2023-05-23T10:57:27.924Z,7.38
2023-05-23T11:00:00.181Z,7.38
2023-05-23T11:02:35.042Z,7.13
2023-05-23T11:05:23.506Z,6.97
2023-05-23T11:08:09.377Z,7.13
2023-05-23T11:10:53.286Z,6.78
2023-05-23T11:13:25.746Z,6.50
2023-05-23T11:15:57.996Z,7.18
2023-05-23T11:18:37.670Z,6.18
2023-05-23T11:21:10.584Z,7.10
2023-05-23T11:23:43.395Z,6.50
2023-05-23T11:26:30.261Z,7.00
2023-05-23T11:29:04.356Z,6.70
2023-05-23T11:31:38.384Z,6.45
2023-05-23T11:34:14.224Z,6.72
2023-05-23T11:36:47.074Z,4.70
2023-05-23T11:39:21.033Z,5.82
2023-05-23T11:42:02.178Z,6.07
2023-05-23T11:44:34.344Z,5.63
2023-05-23T11:47:08.028Z,6.05
2023-05-23T11:49:45.509Z,5.78
2023-05-23T11:52:17.703Z,5.13
2023-05-23T11:54:49.920Z,5.38
2023-05-23T11:57:22.068Z,4.85
2023-05-23T11:59:54.702Z,4.60
2023-05-23T12:02:28.853Z,4.47
2023-05-23T12:05:11.180Z,4.55
2023-05-23T12:07:43.690Z,5.35
2023-05-23T12:10:22.544Z,4.25
2023-05-23T12:12:55.647Z,4.47
2023-05-23T12:15:28.649Z,4.00
2023-05-23T12:18:00.998Z,4.68
2023-05-23T12:20:36.478Z,4.57
2023-05-23T12:23:08.601Z,4.85
2023-05-23T12:25:44.525Z,4.18
2023-05-23T12:28:16.695Z,4.90
2023-05-23T12:30:49.787Z,4.53
2023-05-23T12:33:22.072Z,5.07
2023-05-23T12:35:57.270Z,5.40
2023-05-23T12:38:29.438Z,5.20
2023-05-23T12:41:15.650Z,6.90
2023-05-23T12:43:52.407Z,4.78
2023-05-23T12:46:25.872Z,5.30
2023-05-23T12:48:58.006Z,5.82
2023-05-23T12:51:32.740Z,5.10
2023-05-23T12:54:05.098Z,4.80
2023-05-23T12:56:37.312Z,5.13
2023-05-23T12:59:09.606Z,4.10
2023-05-23T13:01:42.124Z,4.28
2023-05-23T13:04:14.439Z,4.13
2023-05-23T13:06:49.203Z,4.13
2023-05-23T13:09:21.419Z,4.03
2023-05-23T13:11:53.566Z,3.88
2023-05-23T13:14:26.093Z,4.30
2023-05-23T13:16:58.960Z,3.58
2023-05-23T13:19:31.212Z,3.63
2023-05-23T13:22:06.611Z,4.35
2023-05-23T13:24:39.136Z,3.88
2023-05-23T13:27:11.429Z,3.90
2023-05-23T13:29:43.612Z,4.18
2023-05-23T13:32:15.903Z,4.13
2023-05-23T13:34:48.078Z,4.80
2023-05-23T13:37:22.889Z,3.25
2023-05-23T13:39:55.094Z,4.45
2023-05-23T13:42:27.270Z,4.10
2023-05-23T13:44:59.469Z,3.95
2023-05-23T13:47:31.728Z,4.13
2023-05-23T13:50:04.268Z,4.05
2023-05-23T13:52:41.094Z,5.22
2023-05-23T13:55:15.230Z,3.92
2023-05-23T13:57:47.571Z,3.45
2023-05-23T14:00:20.535Z,3.63
2023-05-23T14:02:52.677Z,4.35
2023-05-23T14:05:24.943Z,4.55
2023-05-23T14:07:59.785Z,5.18
2023-05-23T14:10:33.656Z,4.80
2023-05-23T14:13:07.203Z,4.97
2023-05-23T14:15:39.784Z,4.78
2023-05-23T14:18:12.146Z,4.80
2023-05-23T14:20:44.366Z,5.25
2023-05-23T14:23:19.099Z,4.70
2023-05-23T14:25:51.222Z,5.40
2023-05-23T14:28:23.391Z,4.95
2023-05-23T14:30:56.137Z,5.28
2023-05-23T14:33:28.433Z,4.55
2023-05-23T14:36:01.537Z,4.82
2023-05-23T14:38:36.315Z,5.38
2023-05-23T14:41:08.572Z,5.03
2023-05-23T14:43:40.849Z,4.40
2023-05-23T14:46:14.142Z,4.30
2023-05-23T14:48:46.473Z,5.07
2023-05-23T14:51:34.720Z,6.47
2023-05-23T14:54:13.515Z,5.53
2023-05-23T14:56:45.748Z,5.50
2023-05-23T14:59:17.901Z,5.15
2023-05-23T15:01:50.172Z,6.05
2023-05-23T15:04:22.560Z,7.40
2023-05-23T15:06:54.848Z,6.70
2023-05-23T15:09:29.781Z,6.10
2023-05-23T15:12:01.987Z,6.18
2023-05-23T15:14:34.162Z,6.70
2023-05-23T15:17:08.307Z,7.35
2023-05-23T15:19:43.307Z,6.35
2023-05-23T15:22:33.723Z,6.47
2023-05-23T15:25:11.088Z,5.00
2023-05-23T15:27:45.079Z,6.45
2023-05-23T15:30:17.501Z,5.60
2023-05-23T15:32:50.235Z,5.95
2023-05-23T15:35:22.511Z,6.55
2023-05-23T15:37:54.693Z,6.82
2023-05-23T15:40:29.427Z,6.80
2023-05-23T15:43:01.822Z,6.43
2023-05-23T15:45:34.117Z,5.22
2023-05-23T15:48:06.381Z,4.78
2023-05-23T15:50:39.266Z,5.10
2023-05-23T15:53:11.626Z,5.53
2023-05-23T15:55:46.504Z,4.50
2023-05-23T15:58:18.653Z,5.10
2023-05-23T16:00:51.143Z,5.22
2023-05-23T16:03:23.483Z,5.28
2023-05-23T16:05:55.720Z,4.00
2023-05-23T16:08:27.881Z,4.57
2023-05-23T16:11:02.625Z,5.00
2023-05-23T16:13:34.793Z,4.32
2023-05-23T16:16:07.169Z,4.30
2023-05-23T16:18:39.460Z,3.75
2023-05-23T16:21:11.886Z,4.38
2023-05-23T16:23:44.114Z,3.10
2023-05-23T16:26:19.765Z,3.00
2023-05-23T16:28:54.361Z,3.20
2023-05-23T16:31:27.786Z,3.35
2023-05-23T16:34:00.304Z,2.20
2023-05-23T16:36:32.887Z,3.28
2023-05-23T16:39:05.233Z,2.60
2023-05-23T16:41:40.030Z,3.40
2023-05-23T16:44:12.285Z,2.92
2023-05-23T16:46:44.890Z,2.80
2023-05-23T16:49:17.403Z,3.13
2023-05-23T16:51:49.613Z,2.97
2023-05-23T16:54:21.788Z,3.67
2023-05-23T16:56:57.860Z,2.63
2023-05-23T16:59:30.250Z,2.80
2023-05-23T17:02:02.749Z,2.78
2023-05-23T17:04:35.333Z,2.67
2023-05-23T17:07:09.838Z,2.85
2023-05-23T17:09:42.068Z,3.28
2023-05-23T17:12:16.950Z,2.85
2023-05-23T17:14:49.350Z,2.30
2023-05-23T17:17:21.687Z,2.33
2023-05-23T17:19:54.985Z,2.10
2023-05-23T17:22:27.290Z,2.30
2023-05-23T17:25:01.456Z,2.10
2023-05-23T17:27:36.219Z,1.13
2023-05-23T17:30:09.884Z,1.67
2023-05-23T17:32:43.658Z,2.05
2023-05-23T17:35:16.101Z,1.30
2023-05-23T17:37:48.274Z,5.55
2023-05-23T17:40:20.837Z,2.67
2023-05-23T17:42:55.699Z,2.38
2023-05-23T17:45:28.169Z,2.90
2023-05-23T17:48:04.009Z,2.50
2023-05-23T17:50:36.812Z,4.78
2023-05-23T17:53:09.102Z,2.80
2023-05-23T17:55:41.418Z,2.78
2023-05-23T17:58:16.773Z,3.08
2023-05-23T18:00:49.192Z,2.80
2023-05-23T18:03:22.488Z,2.67
2023-05-23T18:05:54.791Z,2.63
2023-05-23T18:08:27.210Z,2.70
2023-05-23T18:11:02.674Z,2.92
2023-05-23T18:13:37.782Z,2.55
2023-05-23T18:16:09.966Z,2.83
2023-05-23T18:18:42.268Z,2.75
2023-05-23T18:21:18.060Z,2.75
2023-05-23T18:23:51.164Z,3.38
2023-05-23T18:26:26.454Z,3.33
2023-05-23T18:29:04.810Z,3.63
2023-05-23T18:31:40.218Z,2.83
2023-05-23T18:37:29.301Z,4.45
2023-05-23T18:40:01.733Z,4.05
2023-05-23T18:42:34.255Z,3.30
2023-05-23T18:45:10.775Z,3.88
2023-05-23T18:47:43.012Z,4.35
2023-05-23T18:50:15.415Z,3.47
2023-05-23T18:52:47.692Z,3.10
2023-05-23T18:55:20.499Z,3.83
2023-05-23T18:57:54.064Z,4.28
2023-05-23T19:00:28.878Z,4.68
2023-05-23T19:03:01.362Z,5.75
2023-05-23T19:05:33.686Z,4.25
2023-05-23T19:08:06.179Z,4.10
2023-05-23T19:10:38.425Z,3.50
2023-05-23T19:13:10.679Z,4.30
2023-05-23T19:15:50.494Z,4.43
2023-05-23T19:18:22.919Z,3.97
2023-05-23T19:20:56.760Z,2.88
2023-05-23T19:23:29.074Z,4.07
2023-05-23T19:26:01.371Z,3.78
2023-05-23T19:28:33.516Z,3.50
2023-05-23T19:31:08.356Z,3.65
2023-05-23T19:33:40.522Z,3.67
2023-05-23T19:36:12.867Z,3.28
2023-05-23T19:38:45.027Z,4.30
2023-05-23T19:41:19.513Z,3.15
2023-05-23T19:43:52.901Z,3.13
2023-05-23T19:46:29.208Z,3.92
2023-05-23T19:49:01.706Z,3.40
2023-05-23T19:51:34.173Z,3.47
2023-05-23T19:54:06.542Z,3.63
2023-05-23T19:56:40.159Z,3.45
2023-05-23T19:59:12.803Z,2.90
2023-05-23T20:01:47.606Z,3.28
2023-05-23T20:04:19.867Z,3.38
2023-05-23T20:06:52.448Z,3.65
2023-05-23T20:09:24.810Z,2.78
2023-05-23T20:11:57.138Z,2.97
2023-05-23T20:14:30.857Z,2.50
2023-05-23T20:17:05.992Z,2.25
2023-05-23T20:19:39.224Z,2.20
2023-05-23T20:22:11.706Z,2.67
2023-05-23T20:24:44.120Z,2.60
2023-05-23T20:27:16.875Z,1.85
2023-05-23T20:29:50.067Z,2.25
2023-05-23T20:32:24.875Z,2.83
2023-05-23T20:34:57.044Z,2.88
2023-05-23T20:37:29.289Z,1.77
2023-05-23T20:40:01.434Z,3.03
2023-05-23T20:42:36.606Z,2.97
2023-05-23T20:45:09.756Z,2.53
2023-05-23T20:47:45.121Z,2.83
2023-05-23T20:50:19.275Z,2.90
2023-05-23T20:52:51.924Z,2.70
2023-05-23T20:55:24.257Z,2.10
2023-05-23T20:57:56.412Z,3.53
2023-05-23T21:00:28.664Z,2.92
2023-05-23T21:03:03.753Z,3.42
2023-05-23T21:05:36.194Z,3.33
2023-05-23T21:08:08.507Z,3.28
2023-05-23T21:10:41.329Z,3.17
2023-05-23T21:13:13.737Z,3.25
2023-05-23T21:15:45.894Z,2.05
2023-05-23T21:18:20.978Z,3.33
2023-05-23T21:20:53.166Z,2.78
2023-05-23T21:23:25.363Z,2.80
2023-05-23T21:25:57.735Z,2.28
2023-05-23T21:28:29.949Z,2.75
2023-05-23T21:31:03.588Z,2.92
2023-05-23T21:33:38.476Z,3.10
2023-05-23T21:36:10.873Z,3.17
2023-05-23T21:38:43.063Z,3.13
2023-05-23T21:41:15.259Z,1.98
2023-05-23T21:43:47.403Z,2.15
2023-05-23T21:46:19.694Z,3.35
2023-05-23T21:48:54.397Z,2.40
2023-05-23T21:51:28.855Z,3.05
2023-05-23T21:54:01.342Z,3.10
2023-05-23T21:56:33.775Z,2.25
2023-05-23T21:59:05.931Z,2.00
2023-05-23T22:01:38.229Z,2.50
2023-05-23T22:04:13.175Z,2.97
2023-05-23T22:06:45.406Z,2.67
2023-05-23T22:09:18.548Z,2.22
2023-05-23T22:11:50.924Z,2.95
2023-05-23T22:14:23.180Z,3.05
2023-05-23T22:16:56.295Z,3.13
2023-05-23T22:19:31.129Z,2.88
2023-05-23T22:22:03.471Z,3.17
2023-05-23T22:24:36.099Z,2.30
2023-05-23T22:27:08.312Z,2.38
2023-05-23T22:29:40.654Z,30.67
2023-05-23T22:32:12.918Z,4.13
2023-05-23T22:34:49.011Z,3.25
2023-05-23T22:37:21.174Z,3.35
2023-05-23T22:39:53.415Z,1.95
2023-05-23T22:42:25.594Z,2.25
2023-05-23T22:44:57.864Z,2.85
2023-05-23T22:47:34.253Z,2.70
2023-05-23T22:50:10.301Z,3.05
2023-05-23T22:52:45.492Z,1.80
2023-05-23T22:55:18.083Z,3.03
2023-05-23T22:57:50.277Z,2.72
2023-05-23T23:00:22.539Z,2.40
2023-05-23T23:02:54.967Z,3.33
2023-05-23T23:05:29.811Z,1.70
2023-05-23T23:08:02.035Z,3.00
2023-05-23T23:10:34.211Z,3.70
2023-05-23T23:13:06.619Z,3.05
2023-05-23T23:15:40.385Z,3.00
2023-05-23T23:18:13.901Z,2.75
2023-05-23T23:20:48.707Z,2.75
2023-05-23T23:23:21.120Z,2.67
2023-05-23T23:25:53.386Z,2.28
2023-05-23T23:28:25.645Z,2.22
2023-05-23T23:30:57.835Z,3.60
2023-05-23T23:33:30.102Z,2.67
2023-05-23T23:36:05.646Z,3.70
2023-05-23T23:38:38.325Z,2.92
2023-05-23T23:41:11.082Z,2.58
2023-05-23T23:43:43.285Z,3.08
2023-05-23T23:46:15.638Z,2.20
2023-05-23T23:48:47.841Z,2.40
2023-05-23T23:51:22.584Z,2.85
2023-05-23T23:53:54.754Z,1.88
2023-05-23T23:56:26.963Z,2.35
2023-05-23T23:58:59.357Z,2.90
